createdAt,value
2023-01-04T00:00:49.272Z,77.96
2023-01-04T00:05:50.732Z,78.17
2023-01-04T00:10:52.315Z,78.06
2023-01-04T00:15:53.833Z,77.89
2023-01-04T00:20:55.254Z,78.19
2023-01-04T00:25:56.670Z,77.80
2023-01-04T00:31:02.381Z,77.77
2023-01-04T00:36:08.806Z,77.59
2023-01-04T00:41:56.925Z,77.09
2023-01-04T00:46:33.720Z,76.97
2023-01-04T00:51:37.106Z,77.21
2023-01-04T00:56:38.571Z,77.57
2023-01-04T01:01:41.347Z,77.86
2023-01-04T01:06:43.288Z,77.34
2023-01-04T01:11:45.097Z,77.23
2023-01-04T01:16:57.303Z,77.46
2023-01-04T01:21:59.463Z,77.25
2023-01-04T01:27:00.893Z,77.12
2023-01-04T01:32:02.370Z,76.75
2023-01-04T01:37:03.906Z,76.90
2023-01-04T01:42:05.311Z,76.76
2023-01-04T01:47:21.575Z,76.76
2023-01-04T01:52:29.575Z,77.06
2023-01-04T01:57:36.992Z,77.07
2023-01-04T02:02:44.781Z,76.77
2023-01-04T02:07:48.058Z,76.64
2023-01-04T02:12:51.799Z,76.52
2023-01-04T02:18:10.030Z,76.86
2023-01-04T02:23:30.146Z,76.54
2023-01-04T02:28:58.771Z,76.18
2023-01-04T02:34:08.356Z,76.81
2023-01-04T02:39:39.170Z,76.47
2023-01-04T02:44:59.429Z,76.74
2023-01-04T02:50:19.286Z,76.31
2023-01-04T02:55:20.933Z,76.66
2023-01-04T03:00:34.116Z,77.08
2023-01-04T03:06:15.105Z,76.47
2023-01-04T03:11:36.981Z,76.59
2023-01-04T03:16:40.643Z,76.06
2023-01-04T03:21:45.482Z,76.25
2023-01-04T03:27:29.166Z,77.01
2023-01-04T03:33:05.685Z,76.47
2023-01-04T03:38:48.173Z,77.51
2023-01-04T03:44:18.894Z,76.85
2023-01-04T03:50:00.527Z,77.04
2023-01-04T03:55:05.476Z,76.61
2023-01-04T04:00:13.660Z,77.18
2023-01-04T04:05:41.445Z,77.62
2023-01-04T04:10:42.863Z,77.54
2023-01-04T04:15:44.336Z,77.85
2023-01-04T04:20:45.746Z,78.20
2023-01-04T04:25:47.147Z,78.52
2023-01-04T04:30:52.131Z,78.56
2023-01-04T04:35:55.003Z,78.20
2023-01-04T04:41:15.189Z,78.32
2023-01-04T04:46:16.738Z,78.73
2023-01-04T04:51:18.323Z,78.51
2023-01-04T04:56:19.818Z,78.36
2023-01-04T05:01:21.704Z,78.62
2023-01-04T05:06:23.765Z,79.02
2023-01-04T05:11:43.450Z,79.49
2023-01-04T05:16:45.439Z,79.72
2023-01-04T05:21:46.925Z,80.71
2023-01-04T05:26:48.415Z,80.71
2023-01-04T05:31:49.953Z,80.70
2023-01-04T05:36:51.483Z,80.67
2023-01-04T05:42:11.283Z,80.11
2023-01-04T05:47:15.157Z,80.32
2023-01-04T05:52:17.277Z,81.34
2023-01-04T05:57:19.242Z,80.87
2023-01-04T06:02:24.807Z,80.84
2023-01-04T06:07:27.542Z,80.61
2023-01-04T06:12:29.010Z,81.08
2023-01-04T06:17:30.452Z,81.17
2023-01-04T06:22:32.902Z,81.81
2023-01-04T06:27:34.512Z,82.11
2023-01-04T06:32:35.985Z,81.88
2023-01-04T06:37:38.199Z,82.33
2023-01-04T06:42:45.767Z,82.47
2023-01-04T06:47:48.194Z,82.88
2023-01-04T06:52:49.730Z,84.89
2023-01-04T06:57:55.069Z,83.66
2023-01-04T07:03:13.540Z,84.78
2023-01-04T07:08:17.065Z,88.41
2023-01-04T07:13:18.524Z,88.18
2023-01-04T07:18:20.096Z,88.00
2023-01-04T07:23:21.526Z,86.16
2023-01-04T07:28:41.355Z,86.64
2023-01-04T07:33:42.826Z,86.94
2023-01-04T07:38:44.342Z,85.04
2023-01-04T07:43:46.247Z,85.74
2023-01-04T07:48:47.729Z,84.81
2023-01-04T07:53:49.301Z,84.06
2023-01-04T07:58:50.800Z,84.08
2023-01-04T08:03:53.226Z,83.81
2023-01-04T08:08:54.665Z,83.31
2023-01-04T08:13:56.202Z,82.57
2023-01-04T08:19:04.372Z,82.55
2023-01-04T08:24:06.213Z,82.53
2023-01-04T08:29:07.691Z,81.68
2023-01-04T08:34:10.290Z,82.53
2023-01-04T08:39:11.781Z,82.94
2023-01-04T08:44:13.209Z,83.46
2023-01-04T08:49:15.487Z,82.21
2023-01-04T08:54:17.423Z,82.72
2023-01-04T08:59:18.900Z,82.74
2023-01-04T09:04:20.483Z,81.26
2023-01-04T09:09:21.999Z,82.60
2023-01-04T09:14:23.437Z,81.66
2023-01-04T09:19:24.966Z,82.08
2023-01-04T09:24:26.391Z,81.57
2023-01-04T09:29:27.872Z,81.05
2023-01-04T09:34:29.325Z,81.33
2023-01-04T09:39:30.823Z,80.43
2023-01-04T09:45:21.897Z,81.04
2023-01-04T09:50:16.618Z,80.11
2023-01-04T09:55:38.738Z,79.76
2023-01-04T10:00:49.447Z,79.47
2023-01-04T10:05:52.843Z,79.31
2023-01-04T10:10:57.646Z,79.06
2023-01-04T10:16:05.166Z,77.96
2023-01-04T10:21:32.854Z,79.64
2023-01-04T10:26:42.407Z,78.72
2023-01-04T10:32:05.967Z,78.13
2023-01-04T10:37:21.077Z,77.11
2023-01-04T10:42:33.320Z,76.61
2023-01-04T10:47:34.681Z,75.55
2023-01-04T10:52:53.851Z,75.39
2023-01-04T10:58:02.424Z,75.95
2023-01-04T11:03:13.574Z,73.36
2023-01-04T11:08:22.017Z,71.26
2023-01-04T11:13:24.619Z,70.65
2023-01-04T11:18:26.044Z,71.55
2023-01-04T11:23:27.520Z,72.00
2023-01-04T11:28:37.818Z,72.21
2023-01-04T11:33:56.327Z,71.10
2023-01-04T11:38:58.400Z,71.91
2023-01-04T11:44:06.075Z,71.63
2023-01-04T11:49:19.143Z,70.57
2023-01-04T11:54:20.681Z,71.71
2023-01-04T11:59:25.445Z,73.00
2023-01-04T12:04:29.104Z,71.68
2023-01-04T12:09:32.124Z,71.67
2023-01-04T12:14:37.391Z,71.31
2023-01-04T12:19:41.638Z,72.01
2023-01-04T12:24:45.480Z,71.11
2023-01-04T12:30:01.651Z,69.00
2023-01-04T12:35:03.171Z,68.34
2023-01-04T12:40:43.042Z,69.83
2023-01-04T12:45:48.497Z,68.66
2023-01-04T12:51:34.188Z,68.56
2023-01-04T12:57:13.313Z,68.60
2023-01-04T13:02:18.548Z,69.96
2023-01-04T13:07:32.712Z,71.54
2023-01-04T13:12:55.913Z,71.66
2023-01-04T13:17:58.200Z,72.49
2023-01-04T13:22:59.874Z,74.65
2023-01-04T13:28:03.664Z,77.46
2023-01-04T13:33:27.620Z,78.16
2023-01-04T13:38:31.686Z,77.33
2023-01-04T13:43:46.564Z,76.00
2023-01-04T13:48:52.035Z,74.71
2023-01-04T13:53:56.047Z,74.98
2023-01-04T13:58:58.020Z,75.25
2023-01-04T14:04:01.497Z,75.72
2023-01-04T14:09:13.337Z,76.41
2023-01-04T14:14:23.687Z,76.42
2023-01-04T14:19:41.771Z,78.07
2023-01-04T14:25:08.887Z,78.35
2023-01-04T14:30:20.366Z,78.23
2023-01-04T14:35:21.989Z,77.41
2023-01-04T14:40:28.574Z,79.69
2023-01-04T14:45:29.985Z,80.35
2023-01-04T14:50:31.513Z,82.62
2023-01-04T14:55:33.098Z,82.35
2023-01-04T15:00:34.532Z,85.29
2023-01-04T15:05:37.933Z,84.61
2023-01-04T15:10:39.615Z,84.50
2023-01-04T15:15:41.765Z,83.34
2023-01-04T15:20:43.564Z,84.14
2023-01-04T15:25:45.008Z,85.43
2023-01-04T15:30:46.433Z,85.34
2023-01-04T15:35:47.968Z,84.00
2023-01-04T15:40:50.256Z,82.96
2023-01-04T15:45:51.666Z,83.67
2023-01-04T15:50:53.080Z,82.74
2023-01-04T15:55:54.502Z,82.32
2023-01-04T16:01:01.239Z,80.95
2023-01-04T16:06:10.577Z,80.14
2023-01-04T16:11:15.649Z,79.90
2023-01-04T16:16:19.147Z,79.62
2023-01-04T16:21:23.542Z,78.73
2023-01-04T16:26:24.990Z,79.12
2023-01-04T16:31:26.508Z,79.52
2023-01-04T16:36:28.092Z,79.85
2023-01-04T16:41:29.979Z,80.97
2023-01-04T16:46:36.059Z,80.43
2023-01-04T16:51:40.344Z,80.61
2023-01-04T16:56:43.621Z,80.28
2023-01-04T17:01:52.681Z,79.63
2023-01-04T17:06:58.354Z,78.77
2023-01-04T17:17:24.494Z,80.35
2023-01-04T17:22:32.347Z,79.10
2023-01-04T17:27:35.692Z,78.74
2023-01-04T17:32:37.116Z,79.48
2023-01-04T17:37:38.528Z,79.37
2023-01-04T17:42:42.170Z,78.82
2023-01-04T17:47:43.588Z,78.52
2023-01-04T17:52:47.520Z,79.27
2023-01-04T17:57:48.964Z,78.37
2023-01-04T18:02:50.389Z,79.63
2023-01-04T18:07:51.801Z,79.10
2023-01-04T18:12:53.220Z,78.80
2023-01-04T18:17:54.628Z,79.79
2023-01-04T18:22:56.031Z,79.47
2023-01-04T18:27:57.452Z,78.83
2023-01-04T18:32:58.932Z,78.79
2023-01-04T18:38:00.658Z,79.08
2023-01-04T18:43:02.094Z,78.45
2023-01-04T18:48:03.759Z,79.01
2023-01-04T18:53:05.246Z,78.08
2023-01-04T18:58:06.707Z,79.66
2023-01-04T19:03:10.919Z,80.81
2023-01-04T19:08:14.806Z,79.58
2023-01-04T19:13:16.269Z,79.40
2023-01-04T19:18:17.791Z,79.18
2023-01-04T19:23:19.750Z,79.60
2023-01-04T19:28:21.853Z,78.83
2023-01-04T19:33:23.302Z,78.32
2023-01-04T19:38:24.755Z,78.91
2023-01-04T19:43:26.439Z,78.19
2023-01-04T19:48:27.902Z,77.98
2023-01-04T19:53:29.392Z,77.54
2023-01-04T19:58:30.896Z,77.61
2023-01-04T20:03:32.507Z,77.90
2023-01-04T20:08:34.517Z,78.03
2023-01-04T20:13:37.072Z,77.94
2023-01-04T20:18:38.756Z,78.14
2023-01-04T20:23:41.230Z,77.88
2023-01-04T20:28:45.783Z,78.03
2023-01-04T20:33:47.732Z,78.14
2023-01-04T20:38:50.044Z,77.93
2023-01-04T20:43:52.188Z,78.03
2023-01-04T20:48:54.556Z,77.72
2023-01-04T20:53:59.706Z,76.98
2023-01-04T20:59:01.143Z,77.56
2023-01-04T21:04:02.609Z,76.91
2023-01-04T21:09:04.048Z,76.71
2023-01-04T21:14:05.497Z,76.85
2023-01-04T21:19:07.710Z,78.18
2023-01-04T21:24:09.143Z,77.34
2023-01-04T21:29:10.554Z,78.07
2023-01-04T21:34:15.152Z,78.50
2023-01-04T21:39:18.541Z,78.57
2023-01-04T21:44:20.053Z,78.67
2023-01-04T21:49:21.473Z,78.63
2023-01-04T21:54:23.722Z,79.00
2023-01-04T21:59:25.151Z,79.57
2023-01-04T22:04:26.771Z,78.80
2023-01-04T22:09:28.601Z,79.19
2023-01-04T22:14:30.006Z,78.27
2023-01-04T22:19:31.474Z,78.87
2023-01-04T22:24:37.722Z,78.86
2023-01-04T22:29:39.740Z,78.60
2023-01-04T22:34:41.142Z,78.00
2023-01-04T22:39:42.562Z,78.39
2023-01-04T22:44:43.968Z,78.23
2023-01-04T22:49:45.388Z,78.26
2023-01-04T22:54:48.471Z,77.52
2023-01-04T22:59:49.890Z,77.28
2023-01-04T23:04:51.354Z,77.43
2023-01-04T23:09:52.990Z,77.46
2023-01-04T23:14:54.478Z,77.07
2023-01-04T23:19:55.918Z,76.96
2023-01-04T23:24:57.432Z,79.58
2023-01-04T23:29:58.899Z,79.53
2023-01-04T23:35:00.343Z,79.57
2023-01-04T23:40:01.894Z,78.56
2023-01-04T23:45:03.542Z,79.16
2023-01-04T23:50:05.262Z,80.52
2023-01-04T23:55:07.076Z,81.21
